Time;durP1;ratioP1;P1;durP2;ratioP2;P2;SDS_P1;SDS_P2;PMS_P1;PMS_P2;Temp;Humidity;BMP_temperature;BMP_pressure;BME280_temperature;BME280_humidity;BME280_pressure;Samples;Min_cycle;Max_cycle;Signal;HPM_P1;HPM_P2
2023/10/25 00:02:14;;;;;;;30.53;25.43;;;16.00;70.30;;;;;;5070950;28;20569;-79
2023/10/25 00:04:40;;;;;;;32.63;25.17;;;16.00;70.20;;;;;;5073261;28;20169;-79
2023/10/25 00:07:07;;;;;;;30.93;25.13;;;16.00;70.10;;;;;;5068174;28;20181;-78
2023/10/25 00:09:32;;;;;;;29.13;23.60;;;16.00;70.30;;;;;;5069689;28;20185;-79
2023/10/25 00:11:58;;;;;;;29.57;24.80;;;16.00;70.30;;;;;;5069705;28;20626;-79
2023/10/25 00:14:24;;;;;;;26.87;24.03;;;16.00;70.20;;;;;;5071270;28;20177;-79
2023/10/25 00:16:49;;;;;;;28.00;23.90;;;15.90;70.20;;;;;;5088619;28;20532;-79
2023/10/25 00:19:15;;;;;;;31.03;24.50;;;15.90;70.10;;;;;;5069328;28;20177;-79
2023/10/25 00:21:41;;;;;;;29.80;23.63;;;15.90;70.20;;;;;;5069440;28;20185;-79
2023/10/25 00:24:07;;;;;;;29.47;24.53;;;15.80;70.40;;;;;;5068766;28;20208;-79
2023/10/25 00:26:33;;;;;;;30.23;24.23;;;15.90;70.60;;;;;;5067366;28;20212;-79
2023/10/25 00:28:59;;;;;;;29.50;23.30;;;15.80;70.60;;;;;;5071800;28;20161;-79
2023/10/25 00:31:25;;;;;;;30.97;23.63;;;15.80;70.60;;;;;;5067796;28;20181;-79
2023/10/25 00:33:51;;;;;;;23.93;21.30;;;15.80;70.90;;;;;;5070739;28;20626;-79
2023/10/25 00:36:16;;;;;;;27.33;22.67;;;15.80;70.80;;;;;;5070492;28;20233;-79
2023/10/25 00:38:42;;;;;;;25.80;23.00;;;15.80;70.90;;;;;;5070770;28;20252;-79
2023/10/25 00:41:08;;;;;;;28.17;23.53;;;15.80;70.90;;;;;;5070741;28;20520;-79
2023/10/25 00:43:33;;;;;;;29.03;22.97;;;15.80;70.70;;;;;;5086545;28;20641;-79
2023/10/25 00:46:15;;;;;;;26.57;21.77;;;15.80;70.90;;;;;;5068002;28;20616;-79
2023/10/25 00:48:45;;;;;;;29.07;22.53;;;15.80;71.00;;;;;;5068911;28;20283;-79
2023/10/25 00:51:14;;;;;;;31.27;23.53;;;15.80;71.00;;;;;;5067466;28;20617;-79
2023/10/25 00:53:55;;;;;;;28.07;22.20;;;15.80;71.10;;;;;;5069651;28;20189;-79
2023/10/25 00:56:23;;;;;;;30.00;22.87;;;15.80;71.30;;;;;;5069392;28;20557;-79
2023/10/25 00:58:53;;;;;;;23.73;21.20;;;15.80;71.20;;;;;;5071068;28;20204;-79
2023/10/25 01:01:21;;;;;;;26.10;22.20;;;15.80;71.30;;;;;;5070442;28;20173;-79
2023/10/25 01:03:47;;;;;;;28.87;23.87;;;15.80;71.40;;;;;;5070336;28;20226;-79
2023/10/25 01:06:13;;;;;;;30.40;23.53;;;15.80;71.30;;;;;;5063123;28;20826;-79
2023/10/25 01:08:43;;;;;;;24.80;21.17;;;15.80;71.20;;;;;;5069116;28;20495;-79
2023/10/25 01:11:09;;;;;;;29.87;22.90;;;15.80;71.10;;;;;;5071462;28;20512;-79
2023/10/25 01:13:34;;;;;;;24.67;21.93;;;15.80;71.30;;;;;;5089813;28;20174;-79
2023/10/25 01:16:00;;;;;;;27.60;22.67;;;15.80;71.30;;;;;;5063099;28;20512;-79
2023/10/25 01:18:25;;;;;;;31.37;23.73;;;15.80;71.40;;;;;;5068400;28;20177;-79
2023/10/25 01:20:51;;;;;;;26.97;22.33;;;15.70;71.40;;;;;;5078587;28;20185;-79
2023/10/25 01:23:16;;;;;;;26.97;22.47;;;15.70;71.60;;;;;;5070800;28;20519;-79
2023/10/25 01:25:43;;;;;;;25.43;22.03;;;15.70;71.70;;;;;;5089807;28;20215;-79
2023/10/25 01:28:10;;;;;;;25.93;20.80;;;15.70;71.80;;;;;;5069775;28;20222;-79
2023/10/25 01:30:35;;;;;;;24.97;21.20;;;15.70;71.90;;;;;;5069456;28;20181;-79
2023/10/25 01:33:01;;;;;;;26.10;20.80;;;15.70;72.70;;;;;;5063359;28;20195;-79
2023/10/25 01:35:27;;;;;;;26.83;21.40;;;15.70;71.80;;;;;;5055038;28;20540;-79
2023/10/25 01:37:53;;;;;;;28.87;22.30;;;15.70;71.90;;;;;;5087807;28;20536;-79
2023/10/25 01:40:19;;;;;;;25.03;21.33;;;15.80;71.80;;;;;;5083375;28;20509;-79
2023/10/25 01:42:44;;;;;;;24.13;21.50;;;15.70;71.50;;;;;;5071880;28;20202;-79
2023/10/25 01:45:11;;;;;;;25.87;20.73;;;15.70;71.90;;;;;;5079748;28;20249;-79
2023/10/25 01:47:37;;;;;;;25.97;21.20;;;15.70;72.00;;;;;;5084651;28;20264;-79
2023/10/25 01:50:03;;;;;;;26.23;21.07;;;15.70;72.10;;;;;;5071066;28;20165;-78
2023/10/25 01:52:30;;;;;;;26.30;22.10;;;15.70;72.00;;;;;;5066607;28;20625;-79
2023/10/25 01:54:55;;;;;;;23.70;19.67;;;15.70;72.10;;;;;;5083317;28;20181;-78
2023/10/25 01:57:21;;;;;;;25.60;21.97;;;15.70;72.10;;;;;;5066938;28;20204;-79
2023/10/25 01:59:47;;;;;;;24.03;20.67;;;15.70;72.10;;;;;;5068241;28;20252;-79
2023/10/25 02:02:13;;;;;;;23.60;20.30;;;15.70;72.10;;;;;;5070551;28;20177;-79
2023/10/25 02:04:38;;;;;;;25.50;20.37;;;15.70;72.20;;;;;;5068765;28;20223;-79
2023/10/25 02:07:04;;;;;;;24.30;19.83;;;15.70;72.00;;;;;;5066294;28;20181;-79
2023/10/25 02:09:30;;;;;;;25.30;20.87;;;15.70;72.10;;;;;;5066181;28;20192;-79
2023/10/25 02:11:56;;;;;;;25.60;20.93;;;15.70;72.30;;;;;;5066693;28;20174;-79
2023/10/25 02:14:22;;;;;;;27.53;21.17;;;15.60;72.30;;;;;;5070330;28;20169;-78
2023/10/25 02:16:48;;;;;;;25.80;21.23;;;15.60;72.20;;;;;;5070478;28;20524;-79
2023/10/25 02:19:17;;;;;;;26.93;21.80;;;15.60;72.60;;;;;;5069427;28;20686;-79
2023/10/25 02:21:43;;;;;;;25.50;20.83;;;15.60;72.70;;;;;;5069675;28;20198;-79
2023/10/25 02:24:14;;;;;;;24.53;20.87;;;15.60;72.70;;;;;;5067630;28;20173;-79
2023/10/25 02:26:40;;;;;;;26.37;21.23;;;15.60;72.80;;;;;;5067458;28;20253;-79
2023/10/25 02:29:05;;;;;;;25.47;21.83;;;15.70;72.90;;;;;;5070215;28;20264;-79
2023/10/25 02:31:33;;;;;;;23.33;20.80;;;15.60;72.80;;;;;;5066593;28;20181;-79
2023/10/25 02:33:59;;;;;;;26.50;21.10;;;15.60;72.90;;;;;;5067528;28;20181;-79
2023/10/25 02:36:24;;;;;;;27.47;21.00;;;15.60;73.00;;;;;;5067427;28;20242;-79
2023/10/25 02:38:50;;;;;;;26.20;21.53;;;15.60;73.10;;;;;;5068865;28;20176;-79
2023/10/25 02:41:16;;;;;;;23.97;21.30;;;15.60;72.90;;;;;;5088195;28;20169;-79
2023/10/25 02:43:42;;;;;;;25.30;20.73;;;15.60;72.80;;;;;;5065430;28;20603;-79
2023/10/25 02:46:12;;;;;;;22.53;20.13;;;15.60;73.10;;;;;;5071255;28;20254;-79
2023/10/25 02:48:38;;;;;;;27.30;20.03;;;15.70;73.20;;;;;;5086432;28;20247;-79
2023/10/25 02:51:04;;;;;;;24.20;20.13;;;15.70;72.90;;;;;;5069516;28;20649;-79
2023/10/25 02:53:30;;;;;;;27.70;21.27;;;15.70;73.00;;;;;;5070532;28;20235;-79
2023/10/25 02:56:07;;;;;;;25.23;20.23;;;15.70;72.90;;;;;;5073966;28;20561;-79
2023/10/25 02:58:33;;;;;;;24.10;20.63;;;15.70;73.10;;;;;;5069970;28;20257;-79
2023/10/25 03:01:00;;;;;;;27.07;21.47;;;15.70;73.00;;;;;;5072189;28;20192;-79
2023/10/25 03:03:30;;;;;;;25.53;21.73;;;15.70;72.90;;;;;;5069665;28;20282;-79
2023/10/25 03:05:56;;;;;;;24.17;20.87;;;15.70;73.00;;;;;;5057487;28;20247;-78
2023/10/25 03:08:22;;;;;;;22.80;20.17;;;15.70;73.00;;;;;;5090070;28;20204;-79
2023/10/25 03:10:48;;;;;;;23.40;20.33;;;15.70;73.20;;;;;;5069530;28;20629;-79
2023/10/25 03:13:15;;;;;;;21.60;19.30;;;15.70;73.10;;;;;;5070324;28;20230;-79
2023/10/25 03:15:40;;;;;;;24.07;19.93;;;15.70;73.10;;;;;;5079389;28;20181;-79
2023/10/25 03:18:07;;;;;;;25.13;21.03;;;15.70;73.30;;;;;;5069699;28;20174;-79
2023/10/25 03:20:33;;;;;;;27.50;22.33;;;15.70;73.40;;;;;;5073232;28;20158;-79
2023/10/25 03:22:59;;;;;;;24.13;21.57;;;15.80;73.30;;;;;;5086653;28;20176;-79
2023/10/25 03:25:25;;;;;;;23.57;20.97;;;15.70;73.10;;;;;;5071756;28;20254;-79
2023/10/25 03:27:51;;;;;;;24.57;21.20;;;15.70;73.10;;;;;;5072007;28;20192;-79
2023/10/25 03:30:17;;;;;;;26.53;20.70;;;15.70;73.20;;;;;;5071028;28;20178;-79
2023/10/25 03:32:43;;;;;;;24.87;20.50;;;15.70;73.30;;;;;;5071810;28;20173;-79
2023/10/25 03:35:09;;;;;;;25.77;21.83;;;15.70;73.20;;;;;;5072179;28;20611;-79
2023/10/25 03:37:39;;;;;;;24.37;20.90;;;15.70;73.20;;;;;;5070264;28;20700;-79
2023/10/25 03:40:51;;;;;;;25.50;21.53;;;15.70;73.20;;;;;;5071493;28;20188;-79
2023/10/25 03:43:17;;;;;;;22.87;20.40;;;15.70;73.40;;;;;;5066902;28;20180;-79
2023/10/25 03:45:42;;;;;;;22.10;18.67;;;15.70;73.40;;;;;;5070244;28;20216;-78
2023/10/25 03:48:08;;;;;;;25.37;20.47;;;15.70;73.40;;;;;;5071014;28;20173;-79
2023/10/25 03:50:35;;;;;;;24.20;20.23;;;15.70;73.60;;;;;;5071518;28;20177;-79
2023/10/25 03:53:01;;;;;;;28.00;20.83;;;15.80;73.60;;;;;;5088085;28;20173;-79
2023/10/25 03:55:27;;;;;;;23.23;20.40;;;15.80;73.50;;;;;;5071037;28;20223;-79
2023/10/25 03:57:52;;;;;;;25.80;20.93;;;15.80;73.50;;;;;;5072953;28;20181;-79
2023/10/25 04:00:18;;;;;;;24.07;21.60;;;15.80;73.40;;;;;;5070331;28;20256;-79
2023/10/25 04:02:43;;;;;;;26.00;21.73;;;15.70;73.40;;;;;;5074692;28;20222;-78
2023/10/25 04:05:09;;;;;;;25.10;21.43;;;15.80;73.60;;;;;;5072451;28;20197;-79
2023/10/25 04:07:34;;;;;;;27.80;21.40;;;15.80;73.50;;;;;;5079743;28;20209;-79
2023/10/25 04:10:01;;;;;;;23.43;21.03;;;15.80;73.60;;;;;;5078803;28;20549;-79
2023/10/25 04:12:27;;;;;;;23.53;20.07;;;15.80;73.50;;;;;;5068531;28;20223;-79
2023/10/25 04:14:53;;;;;;;26.07;23.20;;;15.90;73.30;;;;;;5069004;28;20177;-79
2023/10/25 04:17:18;;;;;;;26.70;21.70;;;15.80;73.20;;;;;;5070379;28;20177;-79
2023/10/25 04:19:44;;;;;;;24.90;21.93;;;15.80;73.30;;;;;;5065195;28;20642;-79
2023/10/25 04:22:13;;;;;;;29.53;22.50;;;15.80;73.20;;;;;;5062563;28;20181;-79
2023/10/25 04:24:38;;;;;;;28.40;21.93;;;15.80;73.20;;;;;;5069406;28;20536;-79
2023/10/25 04:27:04;;;;;;;26.97;22.67;;;15.80;73.40;;;;;;5070688;28;20221;-79
2023/10/25 04:29:30;;;;;;;24.37;21.80;;;15.80;73.50;;;;;;5072532;28;20242;-79
2023/10/25 04:31:56;;;;;;;25.80;21.33;;;15.80;73.40;;;;;;5071909;28;20183;-79
2023/10/25 04:34:22;;;;;;;24.80;21.73;;;15.80;73.40;;;;;;5074694;28;20178;-79
2023/10/25 04:36:51;;;;;;;25.63;22.93;;;15.80;73.60;;;;;;5085741;28;20184;-79
2023/10/25 04:39:17;;;;;;;24.87;21.40;;;15.80;73.60;;;;;;5076994;28;20214;-80
2023/10/25 04:41:43;;;;;;;25.57;22.80;;;15.80;73.60;;;;;;5073120;28;20207;-79
2023/10/25 04:44:08;;;;;;;29.40;23.43;;;15.90;73.80;;;;;;5063232;28;20294;-79
2023/10/25 04:46:34;;;;;;;28.40;23.50;;;15.80;73.60;;;;;;5058157;28;20221;-79
2023/10/25 04:48:59;;;;;;;25.13;22.17;;;15.80;73.50;;;;;;5061784;28;20181;-79
2023/10/25 04:51:25;;;;;;;30.20;25.30;;;15.90;73.60;;;;;;5067035;28;20565;-79
2023/10/25 04:53:54;;;;;;;32.17;24.67;;;15.90;73.50;;;;;;5084813;28;20187;-79
2023/10/25 04:56:23;;;;;;;26.80;21.90;;;15.80;73.60;;;;;;5070396;28;20184;-79
2023/10/25 04:58:49;;;;;;;28.53;23.80;;;15.90;73.70;;;;;;5068359;28;20237;-79
2023/10/25 05:01:14;;;;;;;26.50;23.77;;;15.90;73.60;;;;;;5066618;28;20600;-79
2023/10/25 05:03:43;;;;;;;25.43;22.83;;;15.90;73.60;;;;;;5066646;28;20188;-80
2023/10/25 05:06:09;;;;;;;26.40;23.60;;;15.90;73.70;;;;;;5066884;28;20205;-80
2023/10/25 05:08:35;;;;;;;25.90;22.97;;;15.80;73.60;;;;;;5077565;28;20173;-80
2023/10/25 05:11:05;;;;;;;24.60;22.17;;;15.80;73.80;;;;;;5065513;28;20221;-81
2023/10/25 05:13:32;;;;;;;26.37;23.47;;;15.90;74.00;;;;;;5063581;28;20188;-80
2023/10/25 05:15:58;;;;;;;26.77;22.90;;;15.80;73.80;;;;;;5064148;28;20243;-80
2023/10/25 05:18:25;;;;;;;26.00;23.00;;;15.90;73.80;;;;;;5063386;28;20189;-80
2023/10/25 05:20:58;;;;;;;23.80;21.27;;;15.90;73.80;;;;;;5064169;28;20177;-81
2023/10/25 05:23:31;;;;;;;25.83;23.27;;;15.90;73.80;;;;;;5065715;28;20177;-79
2023/10/25 05:25:59;;;;;;;23.07;20.63;;;15.90;73.70;;;;;;5065039;28;20197;-80
2023/10/25 05:28:25;;;;;;;25.97;23.17;;;15.90;73.90;;;;;;5065342;28;20721;-80
2023/10/25 05:30:53;;;;;;;23.40;20.90;;;15.90;74.00;;;;;;5065604;28;20212;-81
2023/10/25 05:33:22;;;;;;;22.53;20.23;;;15.90;74.00;;;;;;5061435;28;20177;-80
2023/10/25 05:35:48;;;;;;;24.57;21.97;;;15.90;74.00;;;;;;5064955;28;20184;-79
2023/10/25 05:38:14;;;;;;;23.57;20.70;;;15.90;74.00;;;;;;5080412;28;20169;-78
2023/10/25 05:40:41;;;;;;;22.93;20.47;;;15.90;74.10;;;;;;5061649;28;20234;-80
2023/10/25 05:43:14;;;;;;;22.93;20.47;;;15.90;74.00;;;;;;5063766;28;20188;-80
2023/10/25 05:45:42;;;;;;;20.90;18.73;;;15.90;74.20;;;;;;5064200;28;20224;-80
2023/10/25 05:48:09;;;;;;;21.77;19.47;;;15.80;74.00;;;;;;5063807;28;20208;-79
2023/10/25 05:50:36;;;;;;;21.13;18.83;;;15.90;74.00;;;;;;5064804;28;20233;-80
2023/10/25 05:53:02;;;;;;;20.33;18.23;;;15.90;74.10;;;;;;5061364;28;20195;-80
2023/10/25 05:55:28;;;;;;;20.83;18.57;;;15.80;74.10;;;;;;5064447;28;20630;-80
2023/10/25 05:57:54;;;;;;;21.83;19.63;;;15.90;74.30;;;;;;5064420;28;20185;-80
2023/10/25 06:00:20;;;;;;;22.57;19.87;;;15.90;74.30;;;;;;5064186;28;20185;-80
2023/10/25 06:02:49;;;;;;;21.73;18.97;;;15.90;74.30;;;;;;5068825;28;20230;-80
2023/10/25 06:05:15;;;;;;;20.13;18.10;;;15.90;74.40;;;;;;5067723;28;20220;-80
2023/10/25 06:07:41;;;;;;;20.67;18.47;;;15.90;74.30;;;;;;5065553;28;20189;-79
2023/10/25 06:10:08;;;;;;;23.40;19.27;;;16.00;74.40;;;;;;5066960;28;20209;-80
2023/10/25 06:12:34;;;;;;;20.30;18.30;;;16.00;74.40;;;;;;5067119;28;20185;-81
2023/10/25 06:15:00;;;;;;;20.33;18.20;;;16.00;74.10;;;;;;5069395;28;20169;-80
2023/10/25 06:17:26;;;;;;;20.40;18.23;;;16.00;74.10;;;;;;5068573;28;20176;-80
2023/10/25 06:19:53;;;;;;;20.30;17.47;;;16.00;74.30;;;;;;5089622;28;20188;-82
2023/10/25 06:22:20;;;;;;;19.57;17.30;;;16.00;74.30;;;;;;5062329;28;20621;-82
2023/10/25 06:24:45;;;;;;;17.77;15.90;;;16.00;74.10;;;;;;5065249;28;20181;-81
2023/10/25 06:27:11;;;;;;;17.67;15.93;;;16.00;74.20;;;;;;5072266;28;20258;-83
2023/10/25 06:29:36;;;;;;;18.70;16.70;;;16.00;74.00;;;;;;5084637;28;20161;-81
2023/10/25 06:32:02;;;;;;;18.27;16.63;;;16.00;74.30;;;;;;5069018;28;20197;-82
2023/10/25 06:34:28;;;;;;;17.97;16.07;;;16.00;74.30;;;;;;5067268;28;20192;-82
2023/10/25 06:36:54;;;;;;;17.60;15.73;;;16.10;74.50;;;;;;5068211;28;20204;-82
2023/10/25 06:39:20;;;;;;;17.93;15.90;;;16.10;74.40;;;;;;5067428;28;20192;-82
2023/10/25 06:41:45;;;;;;;16.37;14.77;;;16.10;74.30;;;;;;5082983;28;20176;-83
2023/10/25 06:44:11;;;;;;;18.07;16.20;;;16.10;74.20;;;;;;5076201;28;20218;-82
2023/10/25 06:46:38;;;;;;;16.23;14.60;;;16.10;74.30;;;;;;5069543;28;20209;-82
2023/10/25 06:49:04;;;;;;;16.07;14.57;;;16.20;74.30;;;;;;5068103;28;20762;-82
2023/10/25 06:51:30;;;;;;;15.63;14.13;;;16.10;74.10;;;;;;5070240;28;20255;-82
2023/10/25 06:53:55;;;;;;;17.43;15.23;;;16.10;74.30;;;;;;5066481;28;20177;-83
2023/10/25 06:56:22;;;;;;;15.53;13.93;;;16.20;74.40;;;;;;5067665;28;20531;-83
2023/10/25 06:58:48;;;;;;;15.70;14.10;;;16.20;74.30;;;;;;5066733;28;20189;-83
2023/10/25 07:01:18;;;;;;;15.23;13.83;;;16.20;74.20;;;;;;5068181;28;20708;-83
2023/10/25 07:03:48;;;;;;;16.57;14.87;;;16.20;74.00;;;;;;5065063;28;20236;-83
2023/10/25 07:06:16;;;;;;;16.37;14.67;;;16.20;74.30;;;;;;5082673;28;20291;-85
2023/10/25 07:08:42;;;;;;;16.70;15.13;;;16.20;74.30;;;;;;5072691;28;20276;-83
2023/10/25 07:11:08;;;;;;;16.83;15.13;;;16.20;74.30;;;;;;5072003;28;20187;-83
2023/10/25 07:13:34;;;;;;;12.60;11.50;;;16.20;74.30;;;;;;5069502;28;20233;-83
2023/10/25 07:15:59;;;;;;;14.67;13.27;;;16.20;74.30;;;;;;5072368;28;20193;-82
2023/10/25 07:18:45;;;;;;;15.20;13.80;;;16.30;74.60;;;;;;5068254;28;20200;-83
2023/10/25 07:21:11;;;;;;;15.57;13.97;;;16.20;74.50;;;;;;5068197;28;20169;-83
2023/10/25 07:23:37;;;;;;;16.00;14.50;;;16.30;74.50;;;;;;5068521;28;20686;-83
2023/10/25 07:26:02;;;;;;;15.10;13.60;;;16.30;74.40;;;;;;5067703;28;20213;-82
2023/10/25 07:28:28;;;;;;;14.40;13.00;;;16.30;74.40;;;;;;5067855;28;20180;-83
2023/10/25 07:30:53;;;;;;;14.30;13.00;;;16.30;74.30;;;;;;5065059;28;20261;-81
2023/10/25 07:33:21;;;;;;;13.67;12.40;;;16.30;74.40;;;;;;5066868;28;20207;-83
2023/10/25 07:35:46;;;;;;;14.23;12.90;;;16.30;74.40;;;;;;5083785;28;20188;-81
2023/10/25 07:38:12;;;;;;;14.50;12.93;;;16.30;74.50;;;;;;5067410;28;20181;-82
2023/10/25 07:40:40;;;;;;;13.07;11.87;;;16.30;74.50;;;;;;5064872;28;20234;-82
2023/10/25 07:43:05;;;;;;;12.43;11.20;;;16.30;74.60;;;;;;5067755;28;20263;-82
2023/10/25 07:45:31;;;;;;;12.80;11.70;;;16.30;74.50;;;;;;5068493;28;20320;-82
2023/10/25 07:48:16;;;;;;;11.27;10.27;;;16.30;74.60;;;;;;5071476;28;20226;-82
2023/10/25 07:50:42;;;;;;;12.03;10.90;;;16.40;74.60;;;;;;5070794;28;20180;-81
2023/10/25 07:53:08;;;;;;;12.23;11.10;;;16.40;74.50;;;;;;5070032;28;20580;-81
2023/10/25 07:55:33;;;;;;;10.40;9.50;;;16.40;74.50;;;;;;5067481;28;20201;-81
2023/10/25 07:57:59;;;;;;;11.27;10.23;;;16.40;74.70;;;;;;5067374;28;20184;-82
2023/10/25 08:00:25;;;;;;;11.80;10.70;;;16.40;74.70;;;;;;5068998;28;20215;-82
2023/10/25 08:02:50;;;;;;;11.50;10.40;;;16.40;74.60;;;;;;5072298;28;20208;-81
2023/10/25 08:05:16;;;;;;;10.40;9.40;;;16.50;74.70;;;;;;5068805;28;20595;-81
2023/10/25 08:07:42;;;;;;;13.63;11.83;;;16.50;74.60;;;;;;5069449;28;20587;-82
2023/10/25 08:10:08;;;;;;;12.00;10.90;;;16.50;74.70;;;;;;5067547;28;20177;-82
2023/10/25 08:12:35;;;;;;;12.53;11.33;;;16.50;74.70;;;;;;5066808;28;20196;-82
2023/10/25 08:15:00;;;;;;;13.57;12.23;;;16.50;74.60;;;;;;5068947;28;20188;-82
2023/10/25 08:17:26;;;;;;;14.60;13.13;;;16.50;74.70;;;;;;5067218;28;20181;-82
2023/10/25 08:19:52;;;;;;;15.93;14.40;;;16.60;74.70;;;;;;5066833;28;20173;-82
2023/10/25 08:22:18;;;;;;;11.90;10.80;;;16.60;74.50;;;;;;5068554;28;20577;-83
2023/10/25 08:24:43;;;;;;;11.30;10.20;;;16.60;74.50;;;;;;5068060;28;20172;-82
2023/10/25 08:27:11;;;;;;;11.80;10.77;;;16.70;74.70;;;;;;5070152;28;20213;-83
2023/10/25 08:29:36;;;;;;;13.73;11.73;;;16.70;74.70;;;;;;5065274;28;20205;-82
2023/10/25 08:32:03;;;;;;;12.23;11.03;;;16.70;74.70;;;;;;5067158;28;20311;-83
2023/10/25 08:34:29;;;;;;;13.57;12.27;;;16.70;74.70;;;;;;5064240;28;20613;-83
2023/10/25 08:36:55;;;;;;;11.80;10.70;;;16.70;74.60;;;;;;5064847;28;20182;-83
2023/10/25 08:39:21;;;;;;;13.20;11.93;;;16.70;74.60;;;;;;5062448;28;20588;-82
2023/10/25 08:41:49;;;;;;;11.80;10.70;;;16.80;74.60;;;;;;5084682;28;20184;-83
2023/10/25 08:44:15;;;;;;;10.63;9.60;;;16.80;74.50;;;;;;5067744;28;20218;-82
2023/10/25 08:46:43;;;;;;;10.23;9.33;;;16.80;74.60;;;;;;5068618;28;20208;-82
2023/10/25 08:49:08;;;;;;;10.27;9.27;;;16.80;74.60;;;;;;5067328;28;22153;-83
2023/10/25 08:51:35;;;;;;;10.63;9.73;;;16.80;75.40;;;;;;5069020;28;20185;-83
2023/10/25 08:54:01;;;;;;;11.43;10.27;;;16.80;74.50;;;;;;5070300;28;20177;-82
2023/10/25 08:56:27;;;;;;;11.47;9.93;;;16.90;74.70;;;;;;5067313;28;20185;-83
2023/10/25 08:58:57;;;;;;;31.70;21.07;;;16.90;74.60;;;;;;5068332;28;20234;-85
2023/10/25 09:01:24;;;;;;;23.33;16.57;;;16.90;74.50;;;;;;5067816;28;20220;-82
2023/10/25 09:03:50;;;;;;;13.23;11.63;;;16.80;74.50;;;;;;5065999;28;20196;-83
2023/10/25 09:06:23;;;;;;;11.87;10.67;;;16.80;74.50;;;;;;5067380;28;20660;-83
2023/10/25 09:08:58;;;;;;;11.93;10.67;;;16.80;74.50;;;;;;5081986;28;20180;-82
2023/10/25 09:11:24;;;;;;;15.17;13.57;;;16.90;74.70;;;;;;5068016;28;20172;-83
2023/10/25 09:14:21;;;;;;;15.03;13.50;;;16.80;74.70;;;;;;5062963;28;20188;-83
2023/10/25 09:16:47;;;;;;;17.60;15.73;;;16.90;74.80;;;;;;5065491;28;20181;-82
2023/10/25 09:19:19;;;;;;;15.73;13.93;;;16.90;74.60;;;;;;5066872;28;20192;-82
2023/10/25 09:21:44;;;;;;;15.73;14.07;;;16.90;74.60;;;;;;5064454;28;20194;-82
2023/10/25 09:24:10;;;;;;;17.53;14.47;;;16.90;74.70;;;;;;5068482;28;20625;-82
2023/10/25 09:26:39;;;;;;;12.30;11.20;;;16.80;74.70;;;;;;5061524;28;20298;-82
2023/10/25 09:29:05;;;;;;;12.60;11.40;;;16.90;74.90;;;;;;5059845;28;20193;-83
2023/10/25 09:31:31;;;;;;;14.70;12.80;;;17.00;74.70;;;;;;5060903;28;20180;-83
2023/10/25 09:33:58;;;;;;;11.30;10.33;;;16.90;74.60;;;;;;5067058;28;20222;-83
2023/10/25 09:36:25;;;;;;;13.27;11.83;;;16.90;74.70;;;;;;5065598;28;20185;-82
2023/10/25 09:38:53;;;;;;;15.30;13.80;;;17.00;74.70;;;;;;5062806;28;20173;-82
2023/10/25 09:41:19;;;;;;;11.33;10.33;;;17.00;74.70;;;;;;5062553;28;20181;-83
2023/10/25 09:43:52;;;;;;;14.03;12.67;;;17.00;74.70;;;;;;5065740;28;20221;-82
2023/10/25 09:46:20;;;;;;;14.00;12.70;;;17.00;74.70;;;;;;5064994;28;20226;-82
2023/10/25 09:48:56;;;;;;;13.50;10.93;;;17.00;74.50;;;;;;5064923;28;20280;-82
2023/10/25 09:51:38;;;;;;;12.67;11.53;;;17.00;74.50;;;;;;5066408;28;20169;-83
2023/10/25 09:54:11;;;;;;;14.43;12.43;;;17.00;74.50;;;;;;5067130;28;20173;-83
2023/10/25 09:56:38;;;;;;;13.23;11.83;;;17.00;74.50;;;;;;5065019;28;20184;-82
2023/10/25 09:59:08;;;;;;;15.53;13.33;;;17.00;74.40;;;;;;5066626;28;20192;-82
2023/10/25 10:01:35;;;;;;;25.17;19.93;;;17.00;74.50;;;;;;5064810;28;20224;-83
2023/10/25 10:04:39;;;;;;;50.83;37.60;;;16.90;74.40;;;;;;5067479;28;20184;-82
2023/10/25 10:07:38;;;;;;;57.67;34.07;;;17.00;74.50;;;;;;5083102;28;20302;-83
2023/10/25 10:10:19;;;;;;;49.90;32.40;;;16.90;74.30;;;;;;5061500;28;20193;-82
2023/10/25 10:12:45;;;;;;;42.63;29.80;;;16.90;74.30;;;;;;5082278;28;20231;-83
2023/10/25 10:15:12;;;;;;;29.13;21.77;;;16.90;74.30;;;;;;5070234;28;20211;-82
2023/10/25 10:17:43;;;;;;;16.63;13.27;;;16.90;75.10;;;;;;5066829;28;20208;-82
2023/10/25 10:20:27;;;;;;;16.57;14.37;;;16.90;74.30;;;;;;5077739;28;20183;-82
2023/10/25 10:23:07;;;;;;;17.17;14.57;;;16.90;74.30;;;;;;5066419;28;20188;-81
2023/10/25 10:25:50;;;;;;;14.30;12.90;;;16.90;74.20;;;;;;5064573;28;20261;-82
2023/10/25 10:28:37;;;;;;;14.20;12.57;;;16.80;74.00;;;;;;5067443;28;20617;-82
2023/10/25 10:31:03;;;;;;;15.23;13.70;;;16.80;74.30;;;;;;5067348;28;20276;-82
2023/10/25 10:33:29;;;;;;;15.33;12.87;;;16.80;74.30;;;;;;5069245;28;20251;-82
2023/10/25 10:36:00;;;;;;;14.17;12.47;;;16.80;74.40;;;;;;5067107;28;20682;-82
2023/10/25 10:38:26;;;;;;;21.70;17.47;;;16.80;74.30;;;;;;5065194;28;20181;-82
2023/10/25 10:40:51;;;;;;;11.50;10.30;;;16.90;74.20;;;;;;5068613;28;20564;-82
2023/10/25 10:43:20;;;;;;;14.00;10.03;;;16.70;74.30;;;;;;5068314;28;20177;-82
2023/10/25 10:45:50;;;;;;;12.20;10.93;;;16.60;74.10;;;;;;5066919;28;20208;-82
2023/10/25 10:48:21;;;;;;;11.00;9.90;;;16.60;74.30;;;;;;5083925;28;20636;-80
2023/10/25 10:50:49;;;;;;;12.37;10.43;;;16.60;74.50;;;;;;5065687;28;20185;-82
2023/10/25 10:53:14;;;;;;;10.53;9.47;;;16.60;74.30;;;;;;5065845;28;20268;-83
2023/10/25 10:55:40;;;;;;;11.60;10.50;;;16.50;73.90;;;;;;5067752;28;20330;-83
2023/10/25 10:58:07;;;;;;;9.13;8.33;;;16.50;74.30;;;;;;5064268;28;20189;-82
2023/10/25 11:00:33;;;;;;;9.50;8.60;;;16.50;74.20;;;;;;5054604;28;20992;-82
2023/10/25 11:03:08;;;;;;;8.20;7.50;;;16.50;74.30;;;;;;5065597;28;20314;-82
2023/10/25 11:05:36;;;;;;;8.20;7.40;;;16.50;74.40;;;;;;5067750;28;20624;-82
2023/10/25 11:08:01;;;;;;;7.83;7.03;;;16.50;74.50;;;;;;5070196;28;20184;-83
2023/10/25 11:10:27;;;;;;;6.60;6.00;;;16.50;74.40;;;;;;5070313;28;20185;-83
2023/10/25 11:12:58;;;;;;;6.63;6.03;;;16.50;74.00;;;;;;5069374;28;20221;-83
2023/10/25 11:15:25;;;;;;;8.60;7.27;;;16.40;73.80;;;;;;5071237;28;20689;-82
2023/10/25 11:17:51;;;;;;;8.57;7.27;;;16.40;74.20;;;;;;5070038;28;20173;-82
2023/10/25 11:20:16;;;;;;;7.53;6.80;;;16.40;74.20;;;;;;5069972;28;20686;-82
2023/10/25 11:22:42;;;;;;;7.17;6.53;;;16.30;74.00;;;;;;5069457;28;20191;-82
2023/10/25 11:25:11;;;;;;;7.97;7.23;;;16.30;74.10;;;;;;5070470;28;20241;-82
2023/10/25 11:27:38;;;;;;;8.57;7.70;;;16.30;74.10;;;;;;5070733;28;20191;-82
2023/10/25 11:30:05;;;;;;;9.37;7.10;;;16.30;74.30;;;;;;5070011;28;20189;-82
2023/10/25 11:32:48;;;;;;;8.57;7.63;;;16.30;74.40;;;;;;5067091;28;20208;-81
2023/10/25 11:35:24;;;;;;;9.37;8.47;;;16.30;74.10;;;;;;5068936;28;20169;-82
2023/10/25 11:37:51;;;;;;;8.00;7.20;;;16.20;74.10;;;;;;5065291;28;20185;-81
2023/10/25 11:40:17;;;;;;;5.80;5.30;;;16.10;74.70;;;;;;5069515;28;20184;-81
2023/10/25 11:42:43;;;;;;;5.30;4.83;;;16.10;74.10;;;;;;5069210;28;20177;-81
2023/10/25 11:45:09;;;;;;;4.37;4.07;;;16.00;74.10;;;;;;5071806;28;20253;-82
2023/10/25 11:47:38;;;;;;;4.80;4.30;;;15.90;74.30;;;;;;5068078;28;20197;-82
2023/10/25 11:50:04;;;;;;;5.00;4.60;;;15.90;74.50;;;;;;5066896;28;20273;-82
2023/10/25 11:52:31;;;;;;;5.23;4.37;;;15.90;74.80;;;;;;5067837;28;20629;-82
2023/10/25 11:54:59;;;;;;;5.47;4.97;;;15.90;74.50;;;;;;5067024;28;20611;-82
2023/10/25 11:57:30;;;;;;;4.70;4.30;;;15.90;74.70;;;;;;5084840;28;20192;-82
2023/10/25 11:59:56;;;;;;;5.17;4.37;;;15.90;74.80;;;;;;5058493;28;20181;-82
2023/10/25 12:02:25;;;;;;;4.63;4.00;;;16.00;74.80;;;;;;5065354;28;20267;-82
2023/10/25 12:04:52;;;;;;;4.63;4.03;;;16.00;74.80;;;;;;5066227;28;20178;-82
2023/10/25 12:07:21;;;;;;;4.40;4.00;;;16.10;74.80;;;;;;5066933;28;20202;-82
2023/10/25 12:09:50;;;;;;;4.90;3.63;;;16.00;74.10;;;;;;5065840;28;20165;-81
2023/10/25 12:12:16;;;;;;;5.13;4.73;;;15.90;73.90;;;;;;5060349;28;20184;-81
2023/10/25 12:14:41;;;;;;;4.37;3.97;;;15.80;74.40;;;;;;5068008;28;20192;-81
2023/10/25 12:17:07;;;;;;;6.67;6.00;;;15.70;74.60;;;;;;5065938;28;20185;-81
2023/10/25 12:19:36;;;;;;;9.80;9.00;;;15.70;74.60;;;;;;5067369;28;20237;-81
2023/10/25 12:22:09;;;;;;;8.40;7.70;;;15.70;74.90;;;;;;5067880;28;20192;-81
2023/10/25 12:24:36;;;;;;;9.07;8.37;;;15.60;74.60;;;;;;5070986;28;20188;-81
2023/10/25 12:27:04;;;;;;;6.03;5.53;;;15.60;74.40;;;;;;5082514;28;20421;-81
2023/10/25 12:29:29;;;;;;;7.50;6.70;;;15.50;74.70;;;;;;5068303;28;20530;-80
2023/10/25 12:32:45;;;;;;;6.80;6.20;;;15.50;74.80;;;;;;5067828;28;20179;-82
2023/10/25 12:35:11;;;;;;;8.33;7.70;;;15.50;75.10;;;;;;5063163;28;20181;-81